Date,TemperatureHighF,TemperatureAvgF,TemperatureLowF,DewpointHighF,DewpointAvgF,DewpointLowF,HumidityHigh,HumidityAvg,HumidityLow,PressureMaxIn,PressureMinIn,WindSpeedMaxMPH,WindSpeedAvgMPH,GustSpeedMaxMPH,PrecipitationSumIn
2013-1-1,16.5,8.0,3.7,8.4,3.5,-0.3,92,82,69,30.28,30.20,4,0,12,0.01
2013-1-2,27.3,18.0,7.6,22.3,13.2,2.9,88,81,59,30.24,30.08,8,1,15,0.00
2013-1-3,27.3,26.1,24.7,25.1,23.4,21.2,92,90,82,30.17,30.11,8,1,13,0.00
2013-1-4,32.5,21.0,10.7,24.9,16.7,7.5,91,84,72,30.28,30.15,3,1,15,0.00
2013-1-5,34.8,32.1,17.4,33.3,30.1,15.2,95,93,79,30.24,29.92,11,4,16,0.09
2013-1-6,34.6,23.2,12.4,33.0,19.6,10.0,96,86,78,30.33,29.91,12,1,14,0.00
2013-1-7,38.0,27.9,12.0,29.5,23.0,9.6,93,82,65,30.32,30.07,17,3,23,0.01
2013-1-8,41.9,34.9,25.4,34.5,30.0,23.1,92,82,73,30.12,29.98,11,2,17,0.02
2013-1-9,41.4,35.1,25.4,35.3,29.6,22.9,94,81,63,30.48,29.98,11,1,21,0.00
2013-1-10,43.8,33.3,23.4,37.5,29.5,21.7,97,87,59,30.48,29.85,6,2,15,0.69
2013-1-11,51.0,45.3,38.5,48.2,44.3,37.7,98,96,90,29.84,29.60,7,3,20,0.15
2013-1-12,50.7,30.5,23.0,47.4,25.6,20.2,90,82,75,30.01,29.62,12,2,18,0.00
2013-1-13,23.0,22.2,21.0,20.6,18.6,16.1,91,86,81,30.02,29.90,11,2,13,0.00
2013-1-14,23.7,18.4,7.6,15.1,11.3,4.5,88,74,61,30.49,30.28,5,0,9,0.00
2013-1-15,30.2,18.6,8.3,18.2,12.7,5.7,89,78,57,30.46,30.15,2,0,10,0.01
2013-1-16,34.8,27.0,12.2,31.1,21.9,9.8,91,81,67,30.14,29.85,5,1,18,0.01
2013-1-17,33.4,24.8,18.5,31.1,16.8,10.7,92,72,54,30.42,30.08,3,1,14,0.00
2013-1-18,44.2,32.6,17.1,34.9,26.6,13.1,90,79,69,30.43,29.89,11,5,31,0.02
2013-1-19,46.6,38.3,19.9,38.6,30.0,10.1,85,72,55,30.02,29.70,17,4,27,0.00
2013-1-20,19.9,14.9,11.5,11.0,6.6,3.9,72,69,66,30.22,30.02,14,4,21,0.00
2013-1-21,12.4,5.6,2.9,6.4,-3.0,-5.4,77,67,51,30.33,30.20,8,2,18,0.00
2013-1-22,11.7,5.7,-2.4,1.2,-3.2,-8.4,77,66,54,30.44,30.33,11,1,17,0.00
2013-1-23,21.2,14.7,10.7,13.9,7.5,0.7,84,73,63,30.37,30.14,10,1,12,0.00
2013-2-22,32.5,29.2,26.2,30.2,27.0,23.9,93,91,90,29.90,29.77,2,1,14,0.04
2013-2-23,30.0,24.4,18.2,23.3,19.8,13.6,90,83,72,29.99,29.90,3,1,16,0.14
2013-2-24,35.3,21.6,7.2,23.6,16.3,4.7,94,81,62,30.15,29.99,1,0,5,0.09
2013-2-25,41.4,27.8,13.3,31.3,22.8,11.1,94,82,64,30.17,29.98,2,0,8,0.00
2013-2-26,35.8,33.0,30.6,30.9,29.4,27.9,96,87,76,29.96,29.57,8,4,20,0.00
2013-2-27,31.4,29.8,29.2,30.4,28.6,27.7,96,95,94,29.64,29.59,12,5,15,0.00